Flight Track Log - Related Links

Times and Time Zones

All times are in EDT time to prevent confusion due to time zone crossing. See the RPA3228 flight status page for this flight to view local times or setup timezone preferences in your user account.

Time Position Orientation Groundspeed Altitude Reporting Facility
EDT Latitude Longitude Course Direction KTS MPH feet Rate Location/Type
Wed 08:05:14 AM 36.1333 -86.6500 64° Northeast 153 176 1,400  Level Nashville TRACON
Wed 08:05:44 AM 36.1500 -86.6333 39° Northeast 163 188 2,400 1,857 Climbing Nashville TRACON
Wed 08:06:38 AM 36.1550 -86.5758 84° East 236 272 4,000 2,526 Climbing Memphis Center
Wed 08:07:00 AM 36.1633 -86.2836 76° East  Level FlightAware Approximate
Wed 08:07:38 AM 36.1628 -86.4881 84° East 288 331 7,200  Level Memphis Center
Wed 08:08:00 AM 36.1871 -86.1572 80° East  Level FlightAware Approximate
Wed 08:08:38 AM 36.1703 -86.3950 84° East 293 337 10,500  Level Memphis Center
Wed 08:09:00 AM 36.2136 -86.0328 64° Northeast  Level FlightAware Approximate
Wed 08:09:38 AM 36.1814 -86.2839 83° East 304 350 13,000  Level Memphis Center
Wed 08:10:00 AM 36.2601 -85.9165 64° Northeast  Level FlightAware Approximate
Wed 08:10:38 AM 36.1919 -86.1625 84° East 320 368 15,900  Level Memphis Center
Wed 08:11:38 AM 36.2089 -86.0486 80° East 333 383 18,200 2,400 Climbing Memphis Center
Wed 08:12:38 AM 36.2572 -85.9431 60° Northeast 333 383 20,700 2,328 Climbing Memphis Center
Wed 08:13:52 AM 36.3111 -85.8208 61° Northeast 360 414 23,400 1,941 Climbing Indianapolis Center
Wed 08:14:54 AM 36.3633 -85.7108 59° Northeast 368 423 25,100 1,597 Climbing Indianapolis Center
Wed 08:15:56 AM 36.4189 -85.5944 59° Northeast 386 444 26,700 1,548 Climbing Indianapolis Center
Wed 08:16:58 AM 36.4875 -85.4492 60° Northeast 403 464 28,300 1,548 Climbing Indianapolis Center
Wed 08:18:00 AM 36.5472 -85.3247 59° Northeast 414 476 29,900 1,366 Climbing Indianapolis Center
Wed 08:19:01 AM 36.6197 -85.2106 52° Northeast 419 482 31,100 1,122 Climbing Indianapolis Center
Wed 08:20:03 AM 36.6989 -85.0953 49° Northeast 432 497 32,200 919 Climbing Indianapolis Center
Wed 08:21:05 AM 36.7789 -84.9842 48° Northeast 429 494 33,000 387 Climbing Indianapolis Center
Wed 08:22:07 AM 36.8522 -84.8811 48° Northeast 400 460 33,000  Level Indianapolis Center
Wed 08:23:09 AM 36.8967 -84.7561 66° East 394 453 33,000  Level Indianapolis Center
Wed 08:24:10 AM 36.9303 -84.6261 72° East 391 450 33,000  Level Indianapolis Center
Wed 08:25:12 AM 36.9658 -84.4847 72° East 391 450 33,000  Level Indianapolis Center
Wed 08:26:14 AM 36.9994 -84.3550 72° East 391 450 33,000  Level Indianapolis Center
Wed 08:27:16 AM 37.0383 -84.2047 72° East 389 448 33,000  Level Indianapolis Center
Wed 08:28:18 AM 37.0714 -84.0733 72° East 393 452 33,000  Level Indianapolis Center
Wed 08:29:20 AM 37.1047 -83.9436 72° East 391 450 33,000  Level Indianapolis Center
Wed 08:30:22 AM 37.1389 -83.8131 72° East 394 453 33,000  Level Indianapolis Center
Wed 08:31:24 AM 37.1714 -83.6806 73° East 394 453 33,000  Level Indianapolis Center
Wed 08:32:26 AM 37.2047 -83.5481 72° East 395 455 33,000  Level Indianapolis Center
Wed 08:33:28 AM 37.2375 -83.4156 73° East 397 457 33,000  Level Indianapolis Center
Wed 08:34:29 AM 37.2764 -83.2600 73° East 396 456 33,000  Level Indianapolis Center
Wed 08:35:31 AM 37.3092 -83.1278 73° East 395 455 33,000  Level Indianapolis Center
Wed 08:36:33 AM 37.3419 -82.9953 73° East 394 453 33,000  Level Indianapolis Center
Wed 08:37:35 AM 37.3731 -82.8656 73° East 387 445 33,000  Level Indianapolis Center
Wed 08:38:37 AM 37.4044 -82.7344 73° East 387 445 33,000  Level Indianapolis Center
Wed 08:39:39 AM 37.4356 -82.6053 73° East 385 443 33,000  Level Indianapolis Center
Wed 08:40:41 AM 37.4667 -82.4747 73° East 386 444 33,000  Level Indianapolis Center
Wed 08:41:43 AM 37.5036 -82.3211 73° East 391 450 33,000  Level Indianapolis Center
Wed 08:42:44 AM 37.5353 -82.1906 73° East 390 449 33,000  Level Indianapolis Center
Wed 08:43:46 AM 37.5661 -82.0586 74° East 391 450 33,000  Level Indianapolis Center
Wed 08:44:48 AM 37.5964 -81.9278 74° East 389 448 33,000  Level Indianapolis Center
Wed 08:45:50 AM 37.6264 -81.7972 74° East 387 445 33,000  Level Indianapolis Center
Wed 08:46:52 AM 37.6581 -81.6653 73° East 390 449 33,000  Level Indianapolis Center
Wed 08:47:54 AM 37.6925 -81.5114 74° East 390 449 33,000  Level Indianapolis Center
Wed 08:48:55 AM 37.7233 -81.3822 73° East 391 450 33,000  Level Indianapolis Center
Wed 08:49:57 AM 37.7517 -81.2547 74° East 389 448 33,000  Level Indianapolis Center
Wed 08:50:59 AM 37.7797 -81.1258 75° East 392 451 33,000  Level Indianapolis Center
Wed 08:52:01 AM 37.8292 -80.9858 66° East 392 451 33,000  Level Indianapolis Center
Wed 08:53:03 AM 37.8736 -80.8603 66° East 393 452 33,000  Level Indianapolis Center
Wed 08:54:05 AM 37.9183 -80.7331 66° East 396 456 33,000  Level Indianapolis Center
Wed 08:55:07 AM 37.9636 -80.6058 66° East 397 457 33,000 -339 Level Indianapolis Center
Wed 08:56:09 AM 38.0153 -80.4603 66° East 394 453 32,300 -823 Descending Indianapolis Center
Wed 08:57:11 AM 38.0589 -80.3356 66° East 395 455 31,300 -634 Descending Indianapolis Center
Wed 08:58:12 AM 38.1067 -80.1981 66° East 399 459 31,000 -146 Descending Indianapolis Center
Wed 08:59:14 AM 38.1578 -80.0581 65° Northeast 404 465 31,000  Level Indianapolis Center
Wed 09:00:16 AM 38.2008 -79.9317 67° East 399 459 31,000  Level Indianapolis Center
Wed 09:01:18 AM 38.2461 -79.8053 65° Northeast 402 463 31,000  Level Indianapolis Center
Wed 09:02:35 AM 38.3025 -79.6558 64° Northeast 392 451 31,000  Level Washington Center
Wed 09:03:35 AM 38.3578 -79.4972 66° East 392 451 31,000 -1,041 Level Washington Center
Wed 09:04:36 AM 38.4017 -79.3672 67° East 392 451 28,900 -1,475 Descending Washington Center
Wed 09:05:37 AM 38.4350 -79.2364 72° East 403 464 28,000 -454 Descending Washington Center
Wed 09:06:35 AM 38.4622 -79.0917 76° East 408 470 28,000 -252 Level Washington Center
Wed 09:07:36 AM 38.4892 -78.9444 77° East 415 478 27,500 -1,377 Descending Washington Center
Wed 09:08:37 AM 38.5078 -78.7994 81° East 415 478 25,200 -2,164 Descending Washington Center
Wed 09:09:38 AM 38.5303 -78.6625 78° East 408 470 23,100 -1,600 Descending Washington Center
Wed 09:10:37 AM 38.5503 -78.5278 79° East 398 458 22,000 -1,077 Descending Washington Center
Wed 09:11:35 AM 38.5700 -78.3983 79° East 386 444 21,000 -1,311 Descending Washington Center
Wed 09:12:36 AM 38.5939 -78.2692 77° East 379 436 19,400 -1,488 Descending Washington Center
Wed 09:13:36 AM 38.6300 -78.1456 69° East 366 421 18,000 -1,600 Descending Washington Center
Wed 09:14:36 AM 38.6656 -78.0325 68° East 354 407 16,200 -1,736 Descending Washington Center
Wed 09:15:37 AM 38.7011 -77.9219 68° East 340 391 14,500 -1,574 Descending Washington Center
Wed 09:16:38 AM 38.7386 -77.8192 65° Northeast 327 376 13,000 -1,373 Descending Washington Center
Wed 09:17:35 AM 38.7900 -77.7436 49° Northeast 299 344 11,800 -1,271 Descending Washington Center
Wed 09:18:36 AM 38.8394 -77.6519 55° Northeast 283 326 10,500 -1,190 Descending Washington Center
Wed 09:19:36 AM 38.8681 -77.5700 66° East 273 314 9,400 -1,119 Descending Washington Center
Wed 09:20:34 AM 38.9000 -77.4667 68° East 280 322 8,300 -1,274 Descending Potomac TRACON
Wed 09:21:29 AM 38.8833 -77.3833 104° East 298 343 7,000 -1,200 Descending Potomac TRACON
Wed 09:22:29 AM 38.8500 -77.2833 113° Southeast 284 327 6,000 -500 Descending Potomac TRACON
Wed 09:23:29 AM 38.8000 -77.2000 128° Southeast 285 328 6,000 -470 Level Potomac TRACON
Wed 09:24:24 AM 38.7667 -77.1333 123° Southeast 285 328 5,100 -1,105 Descending Potomac TRACON
Wed 09:25:23 AM 38.6833 -77.1167 171° South 276 318 3,900 -857 Descending Potomac TRACON
Wed 09:26:23 AM 38.6333 -77.0833 152° Southeast 242 278 3,400 -650 Descending Potomac TRACON
Wed 09:27:23 AM 38.6667 -77.0333 49° Northeast 197 227 2,600 -800 Descending Potomac TRACON

Login

Don't have an account? Register now (free) for customized features, flight alerts, and more!